Cruz Bay, VI

11:15 AM AST on October 23, 2014 (GMT -0400)
Great Cruz Bay, St John | Change Station
CLOSE
Current Station
Personal Weather Station
Location: St John, VI
Elevation: 59 ft
Nearby Weather Stations

Elev 59 ft 18.33 °N, 64.79 °W | Updated 45 seconds ago

Clear
Clear
86.0 °F
Feels Like 97 °F
N
10.0
Wind Variable Wind from East
Gusts 14.0 mph

Today
High -- | Low -- °F
--% Chance of Precip.
Yesterday
High -- | Low -- °F
Precip. -- in
6:15 AM 5:51 PM
Waning Crescent, 0% visible
Pressure 29.96 in
Visibility 10.0 miles
Clouds Clear
Heat Index 97 °F
Dew Point 77 °F
Humidity 74%
Rainfall 0.00 in
Snow Depth Not available.
UV 9 out of 12
Pollen Not available.
Air Quality Not available.
Flu Activity No Activity
METAR TIST 231453Z 14013KT 10SM CLR 30/23 A2995 RMK AO2 SLP143 T03000233 50004

More Conditions Fewer Conditions

Pressure 29.96 in
Visibility 10.0 miles
Clouds Clear
Heat Index 97 °F
Dew Point 77 °F
Humidity 74%
Rainfall 0.00 in
Snow Depth Not available.
UV 9 out of 12
Pollen Not available.
Air Quality Not available.
Flu Activity No Activity
METAR TIST 231453Z 14013KT 10SM CLR 30/23 A2995 RMK AO2 SLP143 T03000233 50004

More Conditions Fewer Conditions

10-Day Weather Forecast

Almanac

Astronomy

Oct. 23, 2014 Rise Set
Actual Time 6:15 AM AST 5:51 PM AST
Civil Twilight 5:53 AM AST 6:13 PM AST
Nautical Twilight 5:27 AM AST 6:39 PM AST
Astronomical Twilight 5:01 AM AST 7:04 PM AST
Moon 5:54 AM AST 5:50 PM AST
Length of Visible Light 12h 20m
Length of Day
11h 36m
Tomorrow will be 0m 58s shorter.
Waning Crescent, 0% of the Moon is Illuminated
Today
Waning Crescent
Oct 23
New
Oct 30
First Quarter
Nov 6
Full
Nov 14
Last Quarter

Community

WunderPhotos

Upload Photos

1,764,280 photos uploaded!

Nearby

Snow Depth

Station Depth Elevation
No new snow has been reported.

Earthquake Activity

City Distance Mag. Time & Date
No recent earthquake activity has been reported nearby.
Minimum magnitude displayed is 2.5.

Coastal Water Temperatures

Place Temperature
Yabucoa Harbor, PR 86.0 °F
Esperanza, PR 84.0 °F
Charlotte Amalie, VI 86.0 °F

Nearby Weather Stations